sensor_id;sensor_type;location;lat;lon;timestamp;pressure;altitude;pressure_sealevel;temperature;humidity
5053;BME280;2545;50.892;5.740;2022-10-18T00:02:11;56308.19;;;-142.21;100.00
5053;BME280;2545;50.892;5.740;2022-10-18T00:04:36;56333.69;;;-142.21;100.00
5053;BME280;2545;50.892;5.740;2022-10-18T00:07:02;56270.91;;;-142.21;100.00
5053;BME280;2545;50.892;5.740;2022-10-18T00:09:27;56333.69;;;-142.21;100.00
5053;BME280;2545;50.892;5.740;2022-10-18T00:11:58;56339.56;;;-142.21;100.00
5053;BME280;2545;50.892;5.740;2022-10-18T00:14:24;56337.59;;;-142.21;100.00
5053;BME280;2545;50.892;5.740;2022-10-18T00:16:50;56300.34;;;-142.21;100.00
5053;BME280;2545;50.892;5.740;2022-10-18T00:19:15;56361.13;;;-142.21;100.00
5053;BME280;2545;50.892;5.740;2022-10-18T00:21:40;56316.03;;;-142.21;100.00
5053;BME280;2545;50.892;5.740;2022-10-18T00:24:06;56312.09;;;-142.21;100.00
5053;BME280;2545;50.892;5.740;2022-10-18T00:26:31;56325.84;;;-142.21;100.00
5053;BME280;2545;50.892;5.740;2022-10-18T00:29:01;56274.84;;;-142.21;100.00
5053;BME280;2545;50.892;5.740;2022-10-18T00:31:36;56300.34;;;-142.21;100.00
5053;BME280;2545;50.892;5.740;2022-10-18T00:34:08;56294.47;;;-142.21;100.00
5053;BME280;2545;50.892;5.740;2022-10-18T00:36:34;56335.63;;;-142.21;100.00
5053;BME280;2545;50.892;5.740;2022-10-18T00:39:00;56319.94;;;-142.21;100.00
5053;BME280;2545;50.892;5.740;2022-10-18T00:41:28;56325.84;;;-142.21;100.00
5053;BME280;2545;50.892;5.740;2022-10-18T00:44:04;56325.84;;;-142.21;100.00
5053;BME280;2545;50.892;5.740;2022-10-18T00:46:32;56335.63;;;-142.21;100.00
5053;BME280;2545;50.892;5.740;2022-10-18T00:49:00;56294.47;;;-142.21;100.00
5053;BME280;2545;50.892;5.740;2022-10-18T00:51:31;56284.66;;;-142.21;100.00
5053;BME280;2545;50.892;5.740;2022-10-18T00:53:57;56331.72;;;-142.21;100.00
5053;BME280;2545;50.892;5.740;2022-10-18T00:56:22;56335.63;;;-142.21;100.00
5053;BME280;2545;50.892;5.740;2022-10-18T00:58:48;56278.78;;;-142.21;100.00
5053;BME280;2545;50.892;5.740;2022-10-18T01:01:14;56296.41;;;-142.21;100.00
5053;BME280;2545;50.892;5.740;2022-10-18T01:03:40;56333.69;;;-142.21;100.00
5053;BME280;2545;50.892;5.740;2022-10-18T01:06:07;56319.94;;;-142.21;100.00
5053;BME280;2545;50.892;5.740;2022-10-18T01:14:13;56314.06;;;-142.21;100.00
5053;BME280;2545;50.892;5.740;2022-10-18T01:17:00;56310.13;;;-142.21;100.00
5053;BME280;2545;50.892;5.740;2022-10-18T01:22:44;56312.09;;;-142.21;100.00
5053;BME280;2545;50.892;5.740;2022-10-18T01:28:07;56292.50;;;-142.21;100.00
5053;BME280;2545;50.892;5.740;2022-10-18T01:33:28;56345.44;;;-142.21;100.00
5053;BME280;2545;50.892;5.740;2022-10-18T01:36:26;56312.09;;;-142.21;100.00
5053;BME280;2545;50.892;5.740;2022-10-18T01:38:56;56331.72;;;-142.21;100.00
5053;BME280;2545;50.892;5.740;2022-10-18T01:41:24;56347.41;;;-142.21;100.00
5053;BME280;2545;50.892;5.740;2022-10-18T01:43:55;56337.59;;;-142.21;100.00
5053;BME280;2545;50.892;5.740;2022-10-18T01:46:23;56347.41;;;-142.21;100.00
5053;BME280;2545;50.892;5.740;2022-10-18T01:48:50;56292.50;;;-142.21;100.00
5053;BME280;2545;50.892;5.740;2022-10-18T01:51:27;56337.59;;;-142.21;100.00
5053;BME280;2545;50.892;5.740;2022-10-18T01:53:53;56310.13;;;-142.21;100.00
5053;BME280;2545;50.892;5.740;2022-10-18T02:04:38;56325.84;;;-142.21;100.00
5053;BME280;2545;50.892;5.740;2022-10-18T02:10:21;56306.22;;;-142.21;100.00
5053;BME280;2545;50.892;5.740;2022-10-18T02:12:51;56333.69;;;-142.21;100.00
5053;BME280;2545;50.892;5.740;2022-10-18T02:15:22;56351.31;;;-142.21;100.00
5053;BME280;2545;50.892;5.740;2022-10-18T02:17:49;56355.25;;;-142.21;100.00
5053;BME280;2545;50.892;5.740;2022-10-18T02:20:16;56331.72;;;-142.21;100.00
5053;BME280;2545;50.892;5.740;2022-10-18T02:22:45;56302.28;;;-142.21;100.00
5053;BME280;2545;50.892;5.740;2022-10-18T02:25:17;56319.94;;;-142.21;100.00
5053;BME280;2545;50.892;5.740;2022-10-18T02:27:45;56288.56;;;-142.21;100.00
5053;BME280;2545;50.892;5.740;2022-10-18T02:30:11;56321.91;;;-142.21;100.00
5053;BME280;2545;50.892;5.740;2022-10-18T02:32:53;56304.25;;;-142.21;100.00
5053;BME280;2545;50.892;5.740;2022-10-18T02:35:34;56323.88;;;-142.21;100.00
5053;BME280;2545;50.892;5.740;2022-10-18T02:38:02;56314.06;;;-142.21;100.00
5053;BME280;2545;50.892;5.740;2022-10-18T02:40:28;56327.78;;;-142.21;100.00
5053;BME280;2545;50.892;5.740;2022-10-18T02:42:56;56331.72;;;-142.21;100.00
5053;BME280;2545;50.892;5.740;2022-10-18T02:45:22;56331.72;;;-142.21;100.00
5053;BME280;2545;50.892;5.740;2022-10-18T02:47:47;56329.75;;;-142.21;100.00
5053;BME280;2545;50.892;5.740;2022-10-18T02:50:13;56294.47;;;-142.21;100.00
5053;BME280;2545;50.892;5.740;2022-10-18T02:52:38;56298.38;;;-142.21;100.00
5053;BME280;2545;50.892;5.740;2022-10-18T02:55:04;56317.97;;;-142.21;100.00
5053;BME280;2545;50.892;5.740;2022-10-18T02:57:30;56319.94;;;-142.21;100.00
5053;BME280;2545;50.892;5.740;2022-10-18T02:59:55;56335.63;;;-142.21;100.00
5053;BME280;2545;50.892;5.740;2022-10-18T03:02:21;56359.16;;;-142.21;100.00
5053;BME280;2545;50.892;5.740;2022-10-18T03:04:46;56304.25;;;-142.21;100.00
5053;BME280;2545;50.892;5.740;2022-10-18T03:07:11;56308.19;;;-142.21;100.00
5053;BME280;2545;50.892;5.740;2022-10-18T03:09:36;56317.97;;;-142.21;100.00
5053;BME280;2545;50.892;5.740;2022-10-18T03:12:02;56327.78;;;-142.21;100.00
5053;BME280;2545;50.892;5.740;2022-10-18T03:14:27;56335.63;;;-142.21;100.00
5053;BME280;2545;50.892;5.740;2022-10-18T03:16:53;56310.13;;;-142.21;100.00
5053;BME280;2545;50.892;5.740;2022-10-18T03:19:18;56367.00;;;-142.21;100.00
5053;BME280;2545;50.892;5.740;2022-10-18T03:21:43;56270.91;;;-142.21;100.00
5053;BME280;2545;50.892;5.740;2022-10-18T03:24:09;56304.25;;;-142.21;100.00
5053;BME280;2545;50.892;5.740;2022-10-18T03:26:34;56298.38;;;-142.21;100.00
5053;BME280;2545;50.892;5.740;2022-10-18T03:28:59;56331.72;;;-142.21;100.00
5053;BME280;2545;50.892;5.740;2022-10-18T03:31:24;56308.19;;;-142.21;100.00
5053;BME280;2545;50.892;5.740;2022-10-18T03:33:50;56335.63;;;-142.21;100.00
5053;BME280;2545;50.892;5.740;2022-10-18T03:36:15;56333.69;;;-142.21;100.00
5053;BME280;2545;50.892;5.740;2022-10-18T03:38:41;56280.72;;;-142.21;100.00
5053;BME280;2545;50.892;5.740;2022-10-18T03:41:06;56327.78;;;-142.21;100.00
5053;BME280;2545;50.892;5.740;2022-10-18T03:43:32;56361.13;;;-142.21;100.00
5053;BME280;2545;50.892;5.740;2022-10-18T03:45:57;56367.00;;;-142.21;100.00
5053;BME280;2545;50.892;5.740;2022-10-18T03:48:22;56302.28;;;-142.21;100.00
5053;BME280;2545;50.892;5.740;2022-10-18T03:50:48;56325.84;;;-142.21;100.00
5053;BME280;2545;50.892;5.740;2022-10-18T03:53:13;56359.16;;;-142.21;100.00
5053;BME280;2545;50.892;5.740;2022-10-18T03:55:39;56341.53;;;-142.21;100.00
5053;BME280;2545;50.892;5.740;2022-10-18T03:58:05;56319.94;;;-142.21;100.00
5053;BME280;2545;50.892;5.740;2022-10-18T04:00:30;56327.78;;;-142.21;100.00
5053;BME280;2545;50.892;5.740;2022-10-18T04:02:56;56329.75;;;-142.21;100.00
5053;BME280;2545;50.892;5.740;2022-10-18T04:05:22;56316.03;;;-142.21;100.00
5053;BME280;2545;50.892;5.740;2022-10-18T04:07:55;56317.97;;;-142.21;100.00
5053;BME280;2545;50.892;5.740;2022-10-18T04:10:21;56310.13;;;-142.21;100.00
5053;BME280;2545;50.892;5.740;2022-10-18T04:12:47;56312.09;;;-142.21;100.00
5053;BME280;2545;50.892;5.740;2022-10-18T04:15:12;56335.63;;;-142.21;100.00
5053;BME280;2545;50.892;5.740;2022-10-18T04:17:37;56363.09;;;-142.21;100.00
5053;BME280;2545;50.892;5.740;2022-10-18T04:20:03;56339.56;;;-142.21;100.00
5053;BME280;2545;50.892;5.740;2022-10-18T04:22:28;56308.19;;;-142.21;100.00
5053;BME280;2545;50.892;5.740;2022-10-18T04:24:53;56316.03;;;-142.21;100.00
5053;BME280;2545;50.892;5.740;2022-10-18T04:27:21;56339.56;;;-142.21;100.00
5053;BME280;2545;50.892;5.740;2022-10-18T04:29:46;56351.31;;;-142.21;100.00
5053;BME280;2545;50.892;5.740;2022-10-18T04:32:12;56300.34;;;-142.21;100.00
5053;BME280;2545;50.892;5.740;2022-10-18T04:34:37;56308.19;;;-142.21;100.00
5053;BME280;2545;50.892;5.740;2022-10-18T04:37:02;56312.09;;;-142.21;100.00
5053;BME280;2545;50.892;5.740;2022-10-18T04:39:27;56329.75;;;-142.21;100.00
5053;BME280;2545;50.892;5.740;2022-10-18T04:41:53;56349.38;;;-142.21;100.00
5053;BME280;2545;50.892;5.740;2022-10-18T04:44:18;56290.53;;;-142.21;100.00
5053;BME280;2545;50.892;5.740;2022-10-18T04:46:43;56316.03;;;-142.21;100.00
5053;BME280;2545;50.892;5.740;2022-10-18T04:49:09;56312.09;;;-142.21;100.00
5053;BME280;2545;50.892;5.740;2022-10-18T04:51:34;56325.84;;;-142.21;100.00
5053;BME280;2545;50.892;5.740;2022-10-18T04:53:59;56308.19;;;-142.21;100.00
5053;BME280;2545;50.892;5.740;2022-10-18T04:56:25;56321.91;;;-142.21;100.00
5053;BME280;2545;50.892;5.740;2022-10-18T04:58:50;56327.78;;;-142.21;100.00
5053;BME280;2545;50.892;5.740;2022-10-18T05:01:15;56298.38;;;-142.21;100.00
5053;BME280;2545;50.892;5.740;2022-10-18T05:03:43;56333.69;;;-142.21;100.00
5053;BME280;2545;50.892;5.740;2022-10-18T05:06:08;56316.03;;;-142.21;100.00
5053;BME280;2545;50.892;5.740;2022-10-18T05:08:34;56304.25;;;-142.21;100.00
5053;BME280;2545;50.892;5.740;2022-10-18T05:11:00;56306.22;;;-142.21;100.00
5053;BME280;2545;50.892;5.740;2022-10-18T05:13:26;56347.41;;;-142.21;100.00
5053;BME280;2545;50.892;5.740;2022-10-18T05:15:51;56351.31;;;-142.21;100.00
5053;BME280;2545;50.892;5.740;2022-10-18T05:18:16;56345.44;;;-142.21;100.00
5053;BME280;2545;50.892;5.740;2022-10-18T05:20:42;56333.69;;;-142.21;100.00
5053;BME280;2545;50.892;5.740;2022-10-18T05:23:07;56372.91;;;-142.21;100.00
5053;BME280;2545;50.892;5.740;2022-10-18T05:25:39;56337.59;;;-142.21;100.00
5053;BME280;2545;50.892;5.740;2022-10-18T05:28:05;56372.91;;;-142.21;100.00
5053;BME280;2545;50.892;5.740;2022-10-18T05:30:31;56286.63;;;-142.21;100.00
5053;BME280;2545;50.892;5.740;2022-10-18T05:32:56;56296.41;;;-142.21;100.00
5053;BME280;2545;50.892;5.740;2022-10-18T05:35:21;56351.31;;;-142.21;100.00
5053;BME280;2545;50.892;5.740;2022-10-18T05:37:47;56316.03;;;-142.21;100.00
5053;BME280;2545;50.892;5.740;2022-10-18T05:40:12;56333.69;;;-142.21;100.00
5053;BME280;2545;50.892;5.740;2022-10-18T05:42:37;56308.19;;;-142.21;100.00
5053;BME280;2545;50.892;5.740;2022-10-18T05:45:03;56372.91;;;-142.21;100.00
5053;BME280;2545;50.892;5.740;2022-10-18T05:47:28;56367.00;;;-142.21;100.00
5053;BME280;2545;50.892;5.740;2022-10-18T05:49:53;56317.97;;;-142.21;100.00
5053;BME280;2545;50.892;5.740;2022-10-18T05:52:19;56343.47;;;-142.21;100.00
5053;BME280;2545;50.892;5.740;2022-10-18T05:54:44;56335.63;;;-142.21;100.00
5053;BME280;2545;50.892;5.740;2022-10-18T05:57:09;56319.94;;;-142.21;100.00
5053;BME280;2545;50.892;5.740;2022-10-18T05:59:35;56321.91;;;-142.21;100.00
5053;BME280;2545;50.892;5.740;2022-10-18T06:02:00;56345.44;;;-142.21;100.00
5053;BME280;2545;50.892;5.740;2022-10-18T06:04:26;56339.56;;;-142.21;100.00
5053;BME280;2545;50.892;5.740;2022-10-18T06:06:51;56343.47;;;-142.21;100.00
5053;BME280;2545;50.892;5.740;2022-10-18T06:09:18;56316.03;;;-142.21;100.00
5053;BME280;2545;50.892;5.740;2022-10-18T06:11:43;56335.63;;;-142.21;100.00
5053;BME280;2545;50.892;5.740;2022-10-18T06:14:08;56345.44;;;-142.21;100.00
5053;BME280;2545;50.892;5.740;2022-10-18T06:16:34;56319.94;;;-142.21;100.00
5053;BME280;2545;50.892;5.740;2022-10-18T06:18:59;56325.84;;;-142.21;100.00
5053;BME280;2545;50.892;5.740;2022-10-18T06:21:25;56323.88;;;-142.21;100.00
5053;BME280;2545;50.892;5.740;2022-10-18T06:23:51;56345.44;;;-142.21;100.00
5053;BME280;2545;50.892;5.740;2022-10-18T06:26:17;56333.69;;;-142.21;100.00
5053;BME280;2545;50.892;5.740;2022-10-18T06:28:42;56325.84;;;-142.21;100.00
5053;BME280;2545;50.892;5.740;2022-10-18T06:31:09;56365.06;;;-142.21;100.00
5053;BME280;2545;50.892;5.740;2022-10-18T06:33:35;56327.78;;;-142.21;100.00
5053;BME280;2545;50.892;5.740;2022-10-18T06:36:09;56325.84;;;-142.21;100.00
5053;BME280;2545;50.892;5.740;2022-10-18T06:38:35;56339.56;;;-142.21;100.00
5053;BME280;2545;50.892;5.740;2022-10-18T06:41:01;56341.53;;;-142.21;100.00
5053;BME280;2545;50.892;5.740;2022-10-18T06:43:26;56317.97;;;-142.21;100.00
5053;BME280;2545;50.892;5.740;2022-10-18T06:45:52;56351.31;;;-142.21;100.00
5053;BME280;2545;50.892;5.740;2022-10-18T06:48:18;56329.75;;;-142.21;100.00
5053;BME280;2545;50.892;5.740;2022-10-18T06:50:51;56347.41;;;-142.21;100.00
5053;BME280;2545;50.892;5.740;2022-10-18T06:53:17;56351.31;;;-142.21;100.00
5053;BME280;2545;50.892;5.740;2022-10-18T06:55:42;56345.44;;;-142.21;100.00
5053;BME280;2545;50.892;5.740;2022-10-18T06:58:07;56314.06;;;-142.21;100.00
5053;BME280;2545;50.892;5.740;2022-10-18T07:00:33;56329.75;;;-142.21;100.00
5053;BME280;2545;50.892;5.740;2022-10-18T07:02:58;56351.31;;;-142.21;100.00
5053;BME280;2545;50.892;5.740;2022-10-18T07:05:23;56331.72;;;-142.21;100.00
5053;BME280;2545;50.892;5.740;2022-10-18T07:07:49;56327.78;;;-142.21;100.00
5053;BME280;2545;50.892;5.740;2022-10-18T07:10:14;56359.16;;;-142.21;100.00
5053;BME280;2545;50.892;5.740;2022-10-18T07:12:39;56312.09;;;-142.21;100.00
5053;BME280;2545;50.892;5.740;2022-10-18T07:15:05;56319.94;;;-142.21;100.00
5053;BME280;2545;50.892;5.740;2022-10-18T07:17:30;56378.78;;;-142.21;100.00
5053;BME280;2545;50.892;5.740;2022-10-18T07:19:55;56347.41;;;-142.21;100.00
5053;BME280;2545;50.892;5.740;2022-10-18T07:22:21;56343.47;;;-142.21;100.00
5053;BME280;2545;50.892;5.740;2022-10-18T07:24:46;56359.16;;;-142.21;100.00
5053;BME280;2545;50.892;5.740;2022-10-18T07:27:12;56359.16;;;-142.21;100.00
5053;BME280;2545;50.892;5.740;2022-10-18T07:29:37;56325.84;;;-142.21;100.00
5053;BME280;2545;50.892;5.740;2022-10-18T07:32:04;56351.31;;;-142.21;100.00
5053;BME280;2545;50.892;5.740;2022-10-18T07:34:29;56329.75;;;-142.21;100.00
5053;BME280;2545;50.892;5.740;2022-10-18T07:36:54;56370.94;;;-142.21;100.00
5053;BME280;2545;50.892;5.740;2022-10-18T07:39:20;56288.56;;;-142.21;100.00
5053;BME280;2545;50.892;5.740;2022-10-18T07:41:45;56339.56;;;-142.21;100.00
5053;BME280;2545;50.892;5.740;2022-10-18T07:44:10;56300.34;;;-142.21;100.00
5053;BME280;2545;50.892;5.740;2022-10-18T07:46:36;56302.28;;;-142.21;100.00
5053;BME280;2545;50.892;5.740;2022-10-18T07:49:01;56323.88;;;-142.21;100.00
5053;BME280;2545;50.892;5.740;2022-10-18T07:51:27;56298.38;;;-142.21;100.00
5053;BME280;2545;50.892;5.740;2022-10-18T07:53:52;56304.25;;;-142.21;100.00
5053;BME280;2545;50.892;5.740;2022-10-18T07:56:19;56335.63;;;-142.21;100.00
5053;BME280;2545;50.892;5.740;2022-10-18T07:58:47;56302.28;;;-142.21;100.00
5053;BME280;2545;50.892;5.740;2022-10-18T08:01:13;56325.84;;;-142.21;100.00
5053;BME280;2545;50.892;5.740;2022-10-18T08:03:39;56302.28;;;-142.21;100.00
5053;BME280;2545;50.892;5.740;2022-10-18T08:06:06;56327.78;;;-142.21;100.00
5053;BME280;2545;50.892;5.740;2022-10-18T08:08:33;56304.25;;;-142.21;100.00
5053;BME280;2545;50.892;5.740;2022-10-18T08:11:04;56294.47;;;-142.21;100.00
5053;BME280;2545;50.892;5.740;2022-10-18T08:13:29;56321.91;;;-142.21;100.00
5053;BME280;2545;50.892;5.740;2022-10-18T08:16:02;56298.38;;;-142.21;100.00
5053;BME280;2545;50.892;5.740;2022-10-18T08:18:28;56304.25;;;-142.21;100.00
5053;BME280;2545;50.892;5.740;2022-10-18T08:20:54;56263.06;;;-142.21;100.00
5053;BME280;2545;50.892;5.740;2022-10-18T08:23:19;56278.78;;;-142.21;100.00
5053;BME280;2545;50.892;5.740;2022-10-18T08:25:44;56325.84;;;-142.21;100.00
5053;BME280;2545;50.892;5.740;2022-10-18T08:28:09;56308.19;;;-142.21;100.00
5053;BME280;2545;50.892;5.740;2022-10-18T08:30:36;56296.41;;;-142.21;100.00
5053;BME280;2545;50.892;5.740;2022-10-18T08:33:02;56333.69;;;-142.21;100.00
5053;BME280;2545;50.892;5.740;2022-10-18T08:35:27;56284.66;;;-142.21;100.00
5053;BME280;2545;50.892;5.740;2022-10-18T08:37:53;56339.56;;;-142.21;100.00
5053;BME280;2545;50.892;5.740;2022-10-18T08:40:18;56314.06;;;-142.21;100.00
5053;BME280;2545;50.892;5.740;2022-10-18T08:43:05;56288.56;;;-142.21;100.00
5053;BME280;2545;50.892;5.740;2022-10-18T08:45:38;56316.03;;;-142.21;100.00
5053;BME280;2545;50.892;5.740;2022-10-18T08:48:07;56288.56;;;-142.21;100.00
5053;BME280;2545;50.892;5.740;2022-10-18T08:50:38;56325.84;;;-142.21;100.00
5053;BME280;2545;50.892;5.740;2022-10-18T08:53:16;56290.53;;;-142.21;100.00
5053;BME280;2545;50.892;5.740;2022-10-18T08:58:23;56300.34;;;-142.21;100.00
5053;BME280;2545;50.892;5.740;2022-10-18T09:01:14;56263.06;;;-142.21;100.00
5053;BME280;2545;50.892;5.740;2022-10-18T09:04:05;56304.25;;;-142.21;100.00
5053;BME280;2545;50.892;5.740;2022-10-18T09:06:54;56329.75;;;-142.21;100.00
5053;BME280;2545;50.892;5.740;2022-10-18T09:15:05;56339.56;;;-142.21;100.00
5053;BME280;2545;50.892;5.740;2022-10-18T09:20:43;56300.34;;;-142.21;100.00
5053;BME280;2545;50.892;5.740;2022-10-18T09:23:18;56296.41;;;-142.21;100.00
5053;BME280;2545;50.892;5.740;2022-10-18T09:25:47;56265.03;;;-142.21;100.00
5053;BME280;2545;50.892;5.740;2022-10-18T09:31:38;56337.59;;;-142.21;100.00
5053;BME280;2545;50.892;5.740;2022-10-18T09:36:49;56300.34;;;-142.21;100.00
5053;BME280;2545;50.892;5.740;2022-10-18T09:39:20;56280.72;;;-142.21;100.00
5053;BME280;2545;50.892;5.740;2022-10-18T09:41:53;56298.38;;;-142.21;100.00
5053;BME280;2545;50.892;5.740;2022-10-18T09:44:39;56319.94;;;-142.21;100.00
5053;BME280;2545;50.892;5.740;2022-10-18T09:47:13;56292.50;;;-142.21;100.00
5053;BME280;2545;50.892;5.740;2022-10-18T09:49:46;56308.19;;;-142.21;100.00
5053;BME280;2545;50.892;5.740;2022-10-18T09:52:36;56304.25;;;-142.21;100.00
5053;BME280;2545;50.892;5.740;2022-10-18T09:55:08;56310.13;;;-142.21;100.00
5053;BME280;2545;50.892;5.740;2022-10-18T09:57:50;56296.41;;;-142.21;100.00
5053;BME280;2545;50.892;5.740;2022-10-18T10:00:21;56300.34;;;-142.21;100.00
5053;BME280;2545;50.892;5.740;2022-10-18T10:02:48;56292.50;;;-142.21;100.00
5053;BME280;2545;50.892;5.740;2022-10-18T10:05:14;56316.03;;;-142.21;100.00
5053;BME280;2545;50.892;5.740;2022-10-18T10:07:42;56294.47;;;-142.21;100.00
5053;BME280;2545;50.892;5.740;2022-10-18T10:10:22;56288.56;;;-142.21;100.00
5053;BME280;2545;50.892;5.740;2022-10-18T10:13:05;56300.34;;;-142.21;100.00
5053;BME280;2545;50.892;5.740;2022-10-18T10:15:32;56294.47;;;-142.21;100.00
5053;BME280;2545;50.892;5.740;2022-10-18T10:20:36;56302.28;;;-142.21;100.00
5053;BME280;2545;50.892;5.740;2022-10-18T10:23:27;56296.41;;;-142.21;100.00
5053;BME280;2545;50.892;5.740;2022-10-18T10:25:55;56296.41;;;-142.21;100.00
5053;BME280;2545;50.892;5.740;2022-10-18T10:28:26;56231.72;;;-142.21;98.96
5053;BME280;2545;50.892;5.740;2022-10-18T10:30:52;56194.44;;;-142.21;85.97
5053;BME280;2545;50.892;5.740;2022-10-18T10:33:37;56268.97;;;-142.21;77.15
5053;BME280;2545;50.892;5.740;2022-10-18T10:36:05;56217.97;;;-142.21;68.34
5053;BME280;2545;50.892;5.740;2022-10-18T10:38:39;56194.44;;;-142.21;65.61
5053;BME280;2545;50.892;5.740;2022-10-18T10:41:04;56202.28;;;-142.21;66.24
5053;BME280;2545;50.892;5.740;2022-10-18T10:43:41;56188.56;;;-142.21;65.90
5053;BME280;2545;50.892;5.740;2022-10-18T10:46:13;56182.69;;;-142.21;70.64
5053;BME280;2545;50.892;5.740;2022-10-18T10:48:46;56196.41;;;-142.21;73.37
5053;BME280;2545;50.892;5.740;2022-10-18T10:51:12;56194.44;;;-142.21;74.63
5053;BME280;2545;50.892;5.740;2022-10-18T10:56:20;56212.09;;;-142.21;80.33
5053;BME280;2545;50.892;5.740;2022-10-18T10:58:47;56233.66;;;-142.21;85.94
5053;BME280;2545;50.892;5.740;2022-10-18T11:01:30;56268.97;;;-142.21;90.49
5053;BME280;2545;50.892;5.740;2022-10-18T11:03:59;56245.44;;;-142.21;92.31
5053;BME280;2545;50.892;5.740;2022-10-18T11:06:39;56239.56;;;-142.21;97.79
5053;BME280;2545;50.892;5.740;2022-10-18T11:09:40;56223.84;;;-142.21;99.13
5053;BME280;2545;50.892;5.740;2022-10-18T11:12:17;56237.59;;;-142.21;99.02
5053;BME280;2545;50.892;5.740;2022-10-18T11:14:48;56223.84;;;-142.21;77.95
5053;BME280;2545;50.892;5.740;2022-10-18T11:17:31;56178.75;;;-142.21;61.99
5053;BME280;2545;50.892;5.740;2022-10-18T11:22:56;56202.28;;;-142.21;64.41
5053;BME280;2545;50.892;5.740;2022-10-18T11:25:31;56190.53;;;-142.21;65.43
5053;BME280;2545;50.892;5.740;2022-10-18T11:28:06;56219.94;;;-142.21;63.07
5053;BME280;2545;50.892;5.740;2022-10-18T11:31:19;56165.03;;;-142.21;58.03
5053;BME280;2545;50.892;5.740;2022-10-18T11:38:56;56125.81;;;-142.21;44.73
5053;BME280;2545;50.892;5.740;2022-10-18T11:44:02;56043.47;;;-142.21;41.35
5053;BME280;2545;50.892;5.740;2022-10-18T11:57:11;56012.09;;;-142.21;37.29
5053;BME280;2545;50.892;5.740;2022-10-18T12:05:20;56031.69;;;-142.21;35.69
5053;BME280;2545;50.892;5.740;2022-10-18T12:10:19;55976.78;;;-142.21;35.92
5053;BME280;2545;50.892;5.740;2022-10-18T12:12:55;56006.22;;;-142.21;35.66
5053;BME280;2545;50.892;5.740;2022-10-18T12:15:24;56074.84;;;-142.21;37.46
5053;BME280;2545;50.892;5.740;2022-10-18T12:17:53;56033.66;;;-142.21;36.90
5053;BME280;2545;50.892;5.740;2022-10-18T12:23:09;55976.78;;;-142.21;34.84
5053;BME280;2545;50.892;5.740;2022-10-18T12:25:40;56029.72;;;-142.21;37.20
5053;BME280;2545;50.892;5.740;2022-10-18T12:28:29;56025.81;;;-142.21;36.56
5053;BME280;2545;50.892;5.740;2022-10-18T12:33:36;56021.88;;;-142.21;35.62
5053;BME280;2545;50.892;5.740;2022-10-18T12:38:44;56053.25;;;-142.21;34.15
5053;BME280;2545;50.892;5.740;2022-10-18T12:41:18;55957.19;;;-142.21;34.47
5053;BME280;2545;50.892;5.740;2022-10-18T12:43:51;56072.88;;;-142.21;34.39
5053;BME280;2545;50.892;5.740;2022-10-18T12:46:17;55968.94;;;-142.21;34.25
5053;BME280;2545;50.892;5.740;2022-10-18T12:48:44;55988.56;;;-142.21;33.61
5053;BME280;2545;50.892;5.740;2022-10-18T12:51:20;55967.00;;;-142.21;33.29
5053;BME280;2545;50.892;5.740;2022-10-18T12:56:35;55992.47;;;-142.21;33.33
5053;BME280;2545;50.892;5.740;2022-10-18T13:15:41;55982.69;;;-142.21;34.34
5053;BME280;2545;50.892;5.740;2022-10-18T13:18:26;55937.56;;;-142.21;32.47
5053;BME280;2545;50.892;5.740;2022-10-18T13:21:09;55929.75;;;-142.21;31.30
5053;BME280;2545;50.892;5.740;2022-10-18T13:23:55;55896.41;;;-142.21;30.50
5053;BME280;2545;50.892;5.740;2022-10-18T13:34:29;55886.59;;;-142.21;30.32
5053;BME280;2545;50.892;5.740;2022-10-18T13:37:02;55914.06;;;-142.21;30.21
5053;BME280;2545;50.892;5.740;2022-10-18T13:39:30;55933.66;;;-142.21;30.94
5053;BME280;2545;50.892;5.740;2022-10-18T13:44:32;55872.88;;;-142.21;30.42
5053;BME280;2545;50.892;5.740;2022-10-18T13:52:06;55827.78;;;-142.21;31.18
5053;BME280;2545;50.892;5.740;2022-10-18T13:57:44;55872.88;;;-142.21;30.02
5053;BME280;2545;50.892;5.740;2022-10-18T14:00:37;55916.00;;;-142.21;30.66
5053;BME280;2545;50.892;5.740;2022-10-18T14:05:54;55929.75;;;-142.21;31.88
5053;BME280;2545;50.892;5.740;2022-10-18T14:08:26;55959.16;;;-142.21;32.14
5053;BME280;2545;50.892;5.740;2022-10-18T14:11:06;56023.84;;;-142.21;32.45
5053;BME280;2545;50.892;5.740;2022-10-18T14:13:46;55976.78;;;-142.21;33.34
5053;BME280;2545;50.892;5.740;2022-10-18T14:16:37;56000.31;;;-142.21;34.22
5053;BME280;2545;50.892;5.740;2022-10-18T14:19:34;55978.75;;;-142.21;34.39
5053;BME280;2545;50.892;5.740;2022-10-18T14:22:11;55992.47;;;-142.21;35.72
5053;BME280;2545;50.892;5.740;2022-10-18T14:24:43;56017.97;;;-142.21;36.19
5053;BME280;2545;50.892;5.740;2022-10-18T14:29:37;56061.09;;;-142.21;37.61
5053;BME280;2545;50.892;5.740;2022-10-18T14:32:08;56049.34;;;-142.21;37.36
5053;BME280;2545;50.892;5.740;2022-10-18T14:34:34;56047.38;;;-142.21;38.04
5053;BME280;2545;50.892;5.740;2022-10-18T14:36:59;56074.84;;;-142.21;38.94
5053;BME280;2545;50.892;5.740;2022-10-18T14:39:26;56045.41;;;-142.21;38.38
5053;BME280;2545;50.892;5.740;2022-10-18T14:41:56;56057.19;;;-142.21;38.68
5053;BME280;2545;50.892;5.740;2022-10-18T14:44:29;56053.25;;;-142.21;37.43
5053;BME280;2545;50.892;5.740;2022-10-18T14:47:21;56021.88;;;-142.21;36.60
5053;BME280;2545;50.892;5.740;2022-10-18T14:49:48;56010.13;;;-142.21;35.35
5053;BME280;2545;50.892;5.740;2022-10-18T14:52:26;55974.84;;;-142.21;34.09
5053;BME280;2545;50.892;5.740;2022-10-18T14:54:55;55947.38;;;-142.21;32.67
5053;BME280;2545;50.892;5.740;2022-10-18T14:57:24;55933.66;;;-142.21;32.60
5053;BME280;2545;50.892;5.740;2022-10-18T14:59:54;55898.38;;;-142.21;31.67
5053;BME280;2545;50.892;5.740;2022-10-18T15:02:26;55968.94;;;-142.21;31.07
5053;BME280;2545;50.892;5.740;2022-10-18T15:04:59;55865.03;;;-142.21;30.30
5053;BME280;2545;50.892;5.740;2022-10-18T15:07:29;55965.03;;;-142.21;30.00
5053;BME280;2545;50.892;5.740;2022-10-18T15:09:57;55894.44;;;-142.21;30.34
5053;BME280;2545;50.892;5.740;2022-10-18T15:12:23;55900.31;;;-142.21;30.32
5053;BME280;2545;50.892;5.740;2022-10-18T15:14:50;55947.38;;;-142.21;31.28